sensor_id;sensor_type;location;lat;lon;timestamp;pressure;altitude;pressure_sealevel;temperature;humidity
39954;BME280;25631;51.516;-0.470;2023-04-10T00:02:00;101271.51;;;11.66;31.20
39954;BME280;25631;51.516;-0.470;2023-04-10T00:04:37;101267.95;;;11.67;31.24
39954;BME280;25631;51.516;-0.470;2023-04-10T00:07:14;101264.11;;;11.74;31.34
39954;BME280;25631;51.516;-0.470;2023-04-10T00:09:50;101264.47;;;11.55;31.47
39954;BME280;25631;51.516;-0.470;2023-04-10T00:12:27;101257.40;;;11.77;31.62
39954;BME280;25631;51.516;-0.470;2023-04-10T00:15:04;101254.27;;;11.75;31.55
39954;BME280;25631;51.516;-0.470;2023-04-10T00:17:41;101254.72;;;11.61;31.53
39954;BME280;25631;51.516;-0.470;2023-04-10T00:20:18;101254.58;;;11.71;31.52
39954;BME280;25631;51.516;-0.470;2023-04-10T00:22:54;101256.31;;;11.82;31.61
39954;BME280;25631;51.516;-0.470;2023-04-10T00:25:30;101260.65;;;11.80;31.61
39954;BME280;25631;51.516;-0.470;2023-04-10T00:28:07;101263.60;;;11.63;31.75
39954;BME280;25631;51.516;-0.470;2023-04-10T00:30:44;101259.96;;;11.72;31.81
39954;BME280;25631;51.516;-0.470;2023-04-10T00:33:20;101249.93;;;11.69;31.92
39954;BME280;25631;51.516;-0.470;2023-04-10T00:35:57;101243.40;;;11.64;31.97
39954;BME280;25631;51.516;-0.470;2023-04-10T00:38:33;101239.51;;;11.50;32.12
39954;BME280;25631;51.516;-0.470;2023-04-10T00:41:10;101243.66;;;11.83;32.27
39954;BME280;25631;51.516;-0.470;2023-04-10T00:43:47;101236.02;;;11.33;32.62
39954;BME280;25631;51.516;-0.470;2023-04-10T00:46:23;101233.13;;;11.31;32.98
39954;BME280;25631;51.516;-0.470;2023-04-10T00:49:00;101226.39;;;11.42;33.30
39954;BME280;25631;51.516;-0.470;2023-04-10T00:51:37;101222.21;;;11.50;33.61
39954;BME280;25631;51.516;-0.470;2023-04-10T00:54:14;101217.80;;;11.85;34.05
39954;BME280;25631;51.516;-0.470;2023-04-10T00:56:51;101221.17;;;11.40;34.78
39954;BME280;25631;51.516;-0.470;2023-04-10T00:59:27;101215.30;;;11.38;35.23
39954;BME280;25631;51.516;-0.470;2023-04-10T01:02:04;101204.92;;;11.34;35.56
39954;BME280;25631;51.516;-0.470;2023-04-10T01:04:41;101205.67;;;11.47;35.60
39954;BME280;25631;51.516;-0.470;2023-04-10T01:07:26;101210.62;;;11.58;35.74
39954;BME280;25631;51.516;-0.470;2023-04-10T01:10:11;101199.45;;;11.53;35.77
39954;BME280;25631;51.516;-0.470;2023-04-10T01:12:56;101199.88;;;11.70;36.15
39954;BME280;25631;51.516;-0.470;2023-04-10T01:15:42;101203.05;;;11.78;36.21
39954;BME280;25631;51.516;-0.470;2023-04-10T01:18:25;101190.74;;;11.19;36.36
39954;BME280;25631;51.516;-0.470;2023-04-10T01:21:05;101183.42;;;11.61;36.58
39954;BME280;25631;51.516;-0.470;2023-04-10T01:23:53;101175.52;;;11.52;36.60
39954;BME280;25631;51.516;-0.470;2023-04-10T01:26:57;101170.03;;;11.23;36.99
39954;BME280;25631;51.516;-0.470;2023-04-10T01:29:40;101171.77;;;11.30;37.03
39954;BME280;25631;51.516;-0.470;2023-04-10T01:32:20;101179.00;;;11.43;37.21
39954;BME280;25631;51.516;-0.470;2023-04-10T01:34:57;101175.22;;;11.45;37.14
39954;BME280;25631;51.516;-0.470;2023-04-10T01:37:41;101177.80;;;11.24;36.98
39954;BME280;25631;51.516;-0.470;2023-04-10T01:40:19;101178.38;;;11.30;37.11
39954;BME280;25631;51.516;-0.470;2023-04-10T01:42:58;101182.81;;;11.46;37.15
39954;BME280;25631;51.516;-0.470;2023-04-10T01:45:35;101183.45;;;11.79;37.47
39954;BME280;25631;51.516;-0.470;2023-04-10T01:48:14;101174.04;;;10.88;37.81
39954;BME280;25631;51.516;-0.470;2023-04-10T01:50:51;101165.63;;;11.43;37.86
39954;BME280;25631;51.516;-0.470;2023-04-10T01:53:30;101158.58;;;11.43;37.78
39954;BME280;25631;51.516;-0.470;2023-04-10T01:56:08;101160.94;;;11.03;38.10
39954;BME280;25631;51.516;-0.470;2023-04-10T01:58:44;101156.56;;;11.21;38.66
39954;BME280;25631;51.516;-0.470;2023-04-10T02:01:21;101160.63;;;11.23;38.71
39954;BME280;25631;51.516;-0.470;2023-04-10T02:03:58;101157.59;;;11.03;38.87
39954;BME280;25631;51.516;-0.470;2023-04-10T02:06:40;101151.32;;;10.89;39.16
39954;BME280;25631;51.516;-0.470;2023-04-10T02:09:24;101152.32;;;11.05;39.45
39954;BME280;25631;51.516;-0.470;2023-04-10T02:12:06;101149.90;;;10.90;39.82
39954;BME280;25631;51.516;-0.470;2023-04-10T02:14:46;101146.21;;;10.84;39.81
39954;BME280;25631;51.516;-0.470;2023-04-10T02:17:26;101139.89;;;10.75;40.24
39954;BME280;25631;51.516;-0.470;2023-04-10T02:20:04;101132.15;;;10.56;40.36
39954;BME280;25631;51.516;-0.470;2023-04-10T02:22:42;101134.33;;;10.65;40.57
39954;BME280;25631;51.516;-0.470;2023-04-10T02:25:19;101134.03;;;10.62;40.65
39954;BME280;25631;51.516;-0.470;2023-04-10T02:27:55;101133.21;;;10.76;40.45
39954;BME280;25631;51.516;-0.470;2023-04-10T02:30:32;101135.73;;;10.85;40.80
39954;BME280;25631;51.516;-0.470;2023-04-10T02:33:09;101135.05;;;10.78;40.81
39954;BME280;25631;51.516;-0.470;2023-04-10T02:35:45;101133.28;;;10.59;40.96
39954;BME280;25631;51.516;-0.470;2023-04-10T02:38:22;101129.53;;;10.73;41.05
39954;BME280;25631;51.516;-0.470;2023-04-10T02:40:58;101116.15;;;10.61;41.30
39954;BME280;25631;51.516;-0.470;2023-04-10T02:43:34;101101.62;;;10.66;41.26
39954;BME280;25631;51.516;-0.470;2023-04-10T02:46:11;101100.23;;;10.67;41.55
39954;BME280;25631;51.516;-0.470;2023-04-10T02:48:47;101092.44;;;10.77;41.58
39954;BME280;25631;51.516;-0.470;2023-04-10T02:51:24;101086.06;;;10.68;41.85
39954;BME280;25631;51.516;-0.470;2023-04-10T02:54:00;101084.97;;;10.77;41.89
39954;BME280;25631;51.516;-0.470;2023-04-10T02:56:36;101086.14;;;10.65;42.17
39954;BME280;25631;51.516;-0.470;2023-04-10T02:59:13;101084.76;;;10.74;41.95
39954;BME280;25631;51.516;-0.470;2023-04-10T03:01:49;101085.74;;;10.85;41.93
39954;BME280;25631;51.516;-0.470;2023-04-10T03:04:26;101087.50;;;10.63;42.01
39954;BME280;25631;51.516;-0.470;2023-04-10T03:07:02;101082.59;;;10.54;42.36
39954;BME280;25631;51.516;-0.470;2023-04-10T03:09:39;101083.24;;;10.64;42.55
39954;BME280;25631;51.516;-0.470;2023-04-10T03:12:15;101082.00;;;10.59;42.52
39954;BME280;25631;51.516;-0.470;2023-04-10T03:14:52;101080.83;;;10.49;42.82
39954;BME280;25631;51.516;-0.470;2023-04-10T03:17:28;101078.60;;;10.54;42.96
39954;BME280;25631;51.516;-0.470;2023-04-10T03:20:06;101076.74;;;10.49;43.16
39954;BME280;25631;51.516;-0.470;2023-04-10T03:22:42;101070.62;;;10.08;43.54
39954;BME280;25631;51.516;-0.470;2023-04-10T03:25:19;101067.08;;;10.30;43.52
39954;BME280;25631;51.516;-0.470;2023-04-10T03:27:56;101062.75;;;10.35;43.41
39954;BME280;25631;51.516;-0.470;2023-04-10T03:30:32;101060.19;;;10.24;43.84
39954;BME280;25631;51.516;-0.470;2023-04-10T03:33:08;101057.68;;;10.08;43.69
39954;BME280;25631;51.516;-0.470;2023-04-10T03:35:45;101057.37;;;10.09;43.71
39954;BME280;25631;51.516;-0.470;2023-04-10T03:38:22;101062.14;;;10.31;43.90
39954;BME280;25631;51.516;-0.470;2023-04-10T03:40:58;101059.08;;;10.20;43.98
39954;BME280;25631;51.516;-0.470;2023-04-10T03:43:35;101055.21;;;10.12;44.20
39954;BME280;25631;51.516;-0.470;2023-04-10T03:46:11;101053.44;;;10.15;44.14
39954;BME280;25631;51.516;-0.470;2023-04-10T03:48:48;101051.39;;;10.13;44.28
39954;BME280;25631;51.516;-0.470;2023-04-10T03:51:24;101040.87;;;10.26;44.29
39954;BME280;25631;51.516;-0.470;2023-04-10T03:54:01;101034.59;;;10.20;44.38
39954;BME280;25631;51.516;-0.470;2023-04-10T03:56:37;101032.17;;;10.13;44.65
39954;BME280;25631;51.516;-0.470;2023-04-10T03:59:14;101027.08;;;10.24;44.68
39954;BME280;25631;51.516;-0.470;2023-04-10T04:01:50;101025.52;;;9.88;44.86
39954;BME280;25631;51.516;-0.470;2023-04-10T04:04:27;101021.09;;;9.75;44.92
39954;BME280;25631;51.516;-0.470;2023-04-10T04:07:03;101021.23;;;9.89;44.99
39954;BME280;25631;51.516;-0.470;2023-04-10T04:09:40;101027.45;;;10.05;45.20
39954;BME280;25631;51.516;-0.470;2023-04-10T04:12:16;101019.07;;;9.81;45.21
39954;BME280;25631;51.516;-0.470;2023-04-10T04:14:52;101014.39;;;9.94;45.07
39954;BME280;25631;51.516;-0.470;2023-04-10T04:17:29;101010.99;;;9.75;45.17
39954;BME280;25631;51.516;-0.470;2023-04-10T04:20:06;101007.12;;;10.03;45.16
39954;BME280;25631;51.516;-0.470;2023-04-10T04:22:44;101004.61;;;9.74;45.46
39954;BME280;25631;51.516;-0.470;2023-04-10T04:25:20;101006.89;;;9.95;45.33
39954;BME280;25631;51.516;-0.470;2023-04-10T04:27:57;101001.58;;;9.90;45.53
39954;BME280;25631;51.516;-0.470;2023-04-10T04:30:33;101003.83;;;9.97;45.56
39954;BME280;25631;51.516;-0.470;2023-04-10T04:33:09;101000.64;;;9.61;45.79
39954;BME280;25631;51.516;-0.470;2023-04-10T04:35:46;100996.23;;;9.80;45.98
39954;BME280;25631;51.516;-0.470;2023-04-10T04:38:22;100988.67;;;9.47;45.92
39954;BME280;25631;51.516;-0.470;2023-04-10T04:40:59;100980.88;;;9.80;45.98
39954;BME280;25631;51.516;-0.470;2023-04-10T04:43:35;100983.87;;;9.49;46.11
39954;BME280;25631;51.516;-0.470;2023-04-10T04:46:11;100983.81;;;9.43;46.27
39954;BME280;25631;51.516;-0.470;2023-04-10T04:48:48;100981.57;;;9.48;46.26
39954;BME280;25631;51.516;-0.470;2023-04-10T04:51:25;100983.19;;;9.61;46.40
39954;BME280;25631;51.516;-0.470;2023-04-10T04:54:01;100978.92;;;9.72;46.55
39954;BME280;25631;51.516;-0.470;2023-04-10T04:56:37;100979.74;;;9.47;46.66
39954;BME280;25631;51.516;-0.470;2023-04-10T04:59:14;100972.72;;;9.52;46.74
39954;BME280;25631;51.516;-0.470;2023-04-10T05:01:50;100968.19;;;9.30;46.97
39954;BME280;25631;51.516;-0.470;2023-04-10T05:04:27;100970.19;;;9.36;46.76
39954;BME280;25631;51.516;-0.470;2023-04-10T05:07:04;100968.70;;;9.39;46.78
39954;BME280;25631;51.516;-0.470;2023-04-10T05:09:40;100964.49;;;9.41;46.83
39954;BME280;25631;51.516;-0.470;2023-04-10T05:12:17;100959.48;;;9.16;46.77
39954;BME280;25631;51.516;-0.470;2023-04-10T05:14:53;100946.68;;;9.50;46.42
39954;BME280;25631;51.516;-0.470;2023-04-10T05:17:30;100938.53;;;9.46;46.47
39954;BME280;25631;51.516;-0.470;2023-04-10T05:20:07;100933.60;;;9.29;46.24
39954;BME280;25631;51.516;-0.470;2023-04-10T05:22:44;100926.19;;;9.66;46.39
39954;BME280;25631;51.516;-0.470;2023-04-10T05:25:20;100923.87;;;8.96;46.32
39954;BME280;25631;51.516;-0.470;2023-04-10T05:27:57;100923.00;;;9.45;46.32
39954;BME280;25631;51.516;-0.470;2023-04-10T05:30:33;100914.26;;;9.54;46.14
39954;BME280;25631;51.516;-0.470;2023-04-10T05:33:10;100919.22;;;9.80;46.04
39954;BME280;25631;51.516;-0.470;2023-04-10T05:35:47;100917.73;;;9.53;46.06
39954;BME280;25631;51.516;-0.470;2023-04-10T05:38:23;100913.09;;;9.68;45.93
39954;BME280;25631;51.516;-0.470;2023-04-10T05:41:00;100905.61;;;9.80;45.96
39954;BME280;25631;51.516;-0.470;2023-04-10T05:43:37;100900.60;;;9.48;45.86
39954;BME280;25631;51.516;-0.470;2023-04-10T05:46:14;100897.17;;;9.71;45.72
39954;BME280;25631;51.516;-0.470;2023-04-10T05:48:53;100893.25;;;9.56;45.80
39954;BME280;25631;51.516;-0.470;2023-04-10T05:51:30;100890.50;;;9.79;45.65
39954;BME280;25631;51.516;-0.470;2023-04-10T05:54:07;100887.99;;;9.24;45.69
39954;BME280;25631;51.516;-0.470;2023-04-10T05:56:44;100885.30;;;9.76;45.80
39954;BME280;25631;51.516;-0.470;2023-04-10T05:59:20;100883.09;;;9.62;45.70
39954;BME280;25631;51.516;-0.470;2023-04-10T06:01:57;100881.87;;;9.80;45.80
39954;BME280;25631;51.516;-0.470;2023-04-10T06:04:34;100878.61;;;9.38;45.64
39954;BME280;25631;51.516;-0.470;2023-04-10T06:07:10;100873.60;;;9.53;45.73
39954;BME280;25631;51.516;-0.470;2023-04-10T06:09:47;100866.44;;;9.91;45.67
39954;BME280;25631;51.516;-0.470;2023-04-10T06:12:23;100868.52;;;9.93;45.66
39954;BME280;25631;51.516;-0.470;2023-04-10T06:15:00;100869.39;;;9.65;45.93
39954;BME280;25631;51.516;-0.470;2023-04-10T06:17:40;100859.93;;;9.63;46.05
39954;BME280;25631;51.516;-0.470;2023-04-10T06:20:17;100854.63;;;9.53;46.31
39954;BME280;25631;51.516;-0.470;2023-04-10T06:22:53;100852.63;;;9.70;46.43
39954;BME280;25631;51.516;-0.470;2023-04-10T06:25:30;100847.86;;;9.73;46.57
39954;BME280;25631;51.516;-0.470;2023-04-10T06:28:06;100855.39;;;9.56;46.56
39954;BME280;25631;51.516;-0.470;2023-04-10T06:30:43;100857.30;;;9.79;46.80
39954;BME280;25631;51.516;-0.470;2023-04-10T06:33:19;100860.27;;;9.40;46.90
39954;BME280;25631;51.516;-0.470;2023-04-10T06:35:55;100856.09;;;9.94;46.89
39954;BME280;25631;51.516;-0.470;2023-04-10T06:38:32;100853.45;;;9.42;47.01
39954;BME280;25631;51.516;-0.470;2023-04-10T06:41:08;100849.39;;;9.59;47.16
39954;BME280;25631;51.516;-0.470;2023-04-10T06:43:45;100849.26;;;9.92;47.19
39954;BME280;25631;51.516;-0.470;2023-04-10T06:46:21;100845.09;;;9.71;47.41
39954;BME280;25631;51.516;-0.470;2023-04-10T06:48:58;100843.15;;;9.53;47.45
39954;BME280;25631;51.516;-0.470;2023-04-10T06:51:34;100837.74;;;9.42;47.61
39954;BME280;25631;51.516;-0.470;2023-04-10T06:54:11;100838.67;;;9.55;47.28
39954;BME280;25631;51.516;-0.470;2023-04-10T06:56:47;100831.32;;;9.54;47.35
39954;BME280;25631;51.516;-0.470;2023-04-10T06:59:24;100829.17;;;9.64;47.25
39954;BME280;25631;51.516;-0.470;2023-04-10T07:02:02;100818.94;;;9.78;47.31
39954;BME280;25631;51.516;-0.470;2023-04-10T07:04:38;100808.28;;;9.63;47.40
39954;BME280;25631;51.516;-0.470;2023-04-10T07:07:15;100806.77;;;9.73;47.50
39954;BME280;25631;51.516;-0.470;2023-04-10T07:09:51;100804.57;;;9.72;47.55
39954;BME280;25631;51.516;-0.470;2023-04-10T07:12:28;100808.04;;;9.62;47.50
39954;BME280;25631;51.516;-0.470;2023-04-10T07:15:06;100807.39;;;9.68;47.38
39954;BME280;25631;51.516;-0.470;2023-04-10T07:17:43;100799.71;;;9.54;47.18
39954;BME280;25631;51.516;-0.470;2023-04-10T07:20:19;100802.05;;;9.64;47.28
39954;BME280;25631;51.516;-0.470;2023-04-10T07:22:55;100796.62;;;9.51;47.05
39954;BME280;25631;51.516;-0.470;2023-04-10T07:25:32;100792.87;;;9.77;46.91
39954;BME280;25631;51.516;-0.470;2023-04-10T07:28:09;100792.42;;;9.77;46.80
39954;BME280;25631;51.516;-0.470;2023-04-10T07:30:45;100786.23;;;10.05;46.73
39954;BME280;25631;51.516;-0.470;2023-04-10T07:33:22;100782.48;;;9.75;46.64
39954;BME280;25631;51.516;-0.470;2023-04-10T07:35:58;100771.74;;;9.56;46.57
39954;BME280;25631;51.516;-0.470;2023-04-10T07:38:35;100771.55;;;9.58;46.53
39954;BME280;25631;51.516;-0.470;2023-04-10T07:41:11;100767.94;;;9.35;46.53
39954;BME280;25631;51.516;-0.470;2023-04-10T07:43:48;100765.16;;;9.47;46.47
39954;BME280;25631;51.516;-0.470;2023-04-10T07:46:24;100762.73;;;9.54;46.63
39954;BME280;25631;51.516;-0.470;2023-04-10T07:49:01;100759.51;;;9.45;46.71
39954;BME280;25631;51.516;-0.470;2023-04-10T07:51:37;100756.50;;;9.25;46.75
39954;BME280;25631;51.516;-0.470;2023-04-10T07:54:14;100752.84;;;9.48;46.77
39954;BME280;25631;51.516;-0.470;2023-04-10T07:56:51;100748.68;;;9.62;46.73
39954;BME280;25631;51.516;-0.470;2023-04-10T07:59:27;100744.78;;;9.57;46.82
39954;BME280;25631;51.516;-0.470;2023-04-10T08:02:04;100738.81;;;9.73;46.91
39954;BME280;25631;51.516;-0.470;2023-04-10T08:04:41;100734.41;;;9.43;47.23
39954;BME280;25631;51.516;-0.470;2023-04-10T08:07:19;100725.73;;;9.74;47.18
39954;BME280;25631;51.516;-0.470;2023-04-10T08:09:55;100721.64;;;9.41;47.31
39954;BME280;25631;51.516;-0.470;2023-04-10T08:12:32;100718.11;;;9.48;47.35
39954;BME280;25631;51.516;-0.470;2023-04-10T08:15:10;100718.98;;;9.72;47.53
39954;BME280;25631;51.516;-0.470;2023-04-10T08:17:46;100709.52;;;9.53;47.61
39954;BME280;25631;51.516;-0.470;2023-04-10T08:20:22;100702.50;;;9.36;47.70
39954;BME280;25631;51.516;-0.470;2023-04-10T08:22:59;100699.22;;;9.53;47.84
39954;BME280;25631;51.516;-0.470;2023-04-10T08:25:35;100701.06;;;9.47;47.97
39954;BME280;25631;51.516;-0.470;2023-04-10T08:28:12;100693.06;;;9.34;48.07
39954;BME280;25631;51.516;-0.470;2023-04-10T08:30:48;100690.88;;;9.60;47.81
39954;BME280;25631;51.516;-0.470;2023-04-10T08:33:25;100684.09;;;9.35;48.05
39954;BME280;25631;51.516;-0.470;2023-04-10T08:36:01;100682.94;;;9.71;48.08
39954;BME280;25631;51.516;-0.470;2023-04-10T08:38:38;100676.97;;;9.89;48.10
39954;BME280;25631;51.516;-0.470;2023-04-10T08:41:16;100670.04;;;9.73;48.27
39954;BME280;25631;51.516;-0.470;2023-04-10T08:43:53;100662.78;;;9.54;48.37
39954;BME280;25631;51.516;-0.470;2023-04-10T08:46:30;100654.10;;;9.60;48.29
39954;BME280;25631;51.516;-0.470;2023-04-10T08:49:20;100656.91;;;9.65;48.38
39954;BME280;25631;51.516;-0.470;2023-04-10T08:51:58;100656.96;;;9.39;48.60
39954;BME280;25631;51.516;-0.470;2023-04-10T08:54:38;100658.45;;;9.74;48.50
39954;BME280;25631;51.516;-0.470;2023-04-10T08:57:16;100653.77;;;9.52;48.57
39954;BME280;25631;51.516;-0.470;2023-04-10T08:59:52;100659.35;;;9.77;48.58
39954;BME280;25631;51.516;-0.470;2023-04-10T09:02:29;100651.28;;;9.81;48.49
39954;BME280;25631;51.516;-0.470;2023-04-10T09:05:10;100645.62;;;9.41;48.53
39954;BME280;25631;51.516;-0.470;2023-04-10T09:07:46;100640.09;;;9.43;48.59
39954;BME280;25631;51.516;-0.470;2023-04-10T09:10:23;100629.74;;;9.08;48.51
39954;BME280;25631;51.516;-0.470;2023-04-10T09:12:59;100634.87;;;9.45;48.52
39954;BME280;25631;51.516;-0.470;2023-04-10T09:16:10;100635.05;;;9.49;48.63
39954;BME280;25631;51.516;-0.470;2023-04-10T09:18:48;100636.37;;;9.95;48.36
39954;BME280;25631;51.516;-0.470;2023-04-10T09:21:25;100636.57;;;9.28;48.53
39954;BME280;25631;51.516;-0.470;2023-04-10T09:24:01;100633.05;;;9.67;48.43
39954;BME280;25631;51.516;-0.470;2023-04-10T09:26:38;100631.12;;;9.91;48.53
39954;BME280;25631;51.516;-0.470;2023-04-10T09:29:14;100625.06;;;9.33;48.93
39954;BME280;25631;51.516;-0.470;2023-04-10T09:31:51;100628.06;;;9.52;49.01
39954;BME280;25631;51.516;-0.470;2023-04-10T09:34:27;100625.86;;;9.15;49.46
39954;BME280;25631;51.516;-0.470;2023-04-10T09:37:04;100621.64;;;9.27;49.38
39954;BME280;25631;51.516;-0.470;2023-04-10T09:39:40;100626.00;;;9.65;49.37
39954;BME280;25631;51.516;-0.470;2023-04-10T09:42:29;100631.01;;;9.75;49.33
39954;BME280;25631;51.516;-0.470;2023-04-10T09:45:06;100625.19;;;9.74;49.27
39954;BME280;25631;51.516;-0.470;2023-04-10T09:47:43;100608.85;;;9.61;49.20
39954;BME280;25631;51.516;-0.470;2023-04-10T09:50:33;100612.86;;;9.55;49.26
39954;BME280;25631;51.516;-0.470;2023-04-10T09:53:13;100613.97;;;9.57;49.27
39954;BME280;25631;51.516;-0.470;2023-04-10T09:55:51;100613.64;;;9.68;49.16
39954;BME280;25631;51.516;-0.470;2023-04-10T09:58:28;100612.13;;;9.69;49.09
39954;BME280;25631;51.516;-0.470;2023-04-10T10:01:05;100606.39;;;9.84;49.19
39954;BME280;25631;51.516;-0.470;2023-04-10T10:03:43;100602.33;;;9.57;49.24
39954;BME280;25631;51.516;-0.470;2023-04-10T10:06:20;100597.27;;;9.86;49.27
39954;BME280;25631;51.516;-0.470;2023-04-10T10:08:59;100592.80;;;9.57;49.39
39954;BME280;25631;51.516;-0.470;2023-04-10T10:11:36;100582.24;;;9.77;49.39
39954;BME280;25631;51.516;-0.470;2023-04-10T10:14:15;100577.60;;;10.02;49.37
39954;BME280;25631;51.516;-0.470;2023-04-10T10:16:55;100574.27;;;10.05;49.26
39954;BME280;25631;51.516;-0.470;2023-04-10T10:19:41;100581.77;;;9.98;49.09
39954;BME280;25631;51.516;-0.470;2023-04-10T10:22:21;100573.57;;;9.91;49.09
39954;BME280;25631;51.516;-0.470;2023-04-10T10:25:02;100563.79;;;9.63;49.25
39954;BME280;25631;51.516;-0.470;2023-04-10T10:27:39;100562.67;;;10.00;49.01
39954;BME280;25631;51.516;-0.470;2023-04-10T10:30:17;100557.60;;;9.90;49.08
39954;BME280;25631;51.516;-0.470;2023-04-10T10:32:55;100554.55;;;9.84;48.93
39954;BME280;25631;51.516;-0.470;2023-04-10T10:35:34;100552.93;;;10.01;48.75
39954;BME280;25631;51.516;-0.470;2023-04-10T10:38:11;100549.14;;;10.53;48.61
39954;BME280;25631;51.516;-0.470;2023-04-10T10:41:01;100545.20;;;10.15;48.70
39954;BME280;25631;51.516;-0.470;2023-04-10T10:43:48;100546.17;;;10.12;48.73
39954;BME280;25631;51.516;-0.470;2023-04-10T10:46:34;100533.88;;;10.45;48.45
39954;BME280;25631;51.516;-0.470;2023-04-10T10:49:13;100535.96;;;10.20;48.30
39954;BME280;25631;51.516;-0.470;2023-04-10T10:51:50;100529.68;;;10.57;48.02
39954;BME280;25631;51.516;-0.470;2023-04-10T10:54:28;100534.30;;;10.74;48.05
39954;BME280;25631;51.516;-0.470;2023-04-10T10:57:45;100538.15;;;10.62;48.06
39954;BME280;25631;51.516;-0.470;2023-04-10T11:00:22;100534.16;;;10.89;47.63
39954;BME280;25631;51.516;-0.470;2023-04-10T11:03:32;100526.80;;;10.75;47.36
39954;BME280;25631;51.516;-0.470;2023-04-10T11:06:09;100526.30;;;10.86;47.00
39954;BME280;25631;51.516;-0.470;2023-04-10T11:08:46;100525.83;;;10.56;47.02
39954;BME280;25631;51.516;-0.470;2023-04-10T11:11:24;100514.87;;;10.61;46.78
39954;BME280;25631;51.516;-0.470;2023-04-10T11:14:16;100508.25;;;10.84;46.95
39954;BME280;25631;51.516;-0.470;2023-04-10T11:16:54;100523.12;;;11.06;46.82
39954;BME280;25631;51.516;-0.470;2023-04-10T11:19:56;100523.99;;;10.81;46.90
39954;BME280;25631;51.516;-0.470;2023-04-10T11:23:06;100529.31;;;11.13;47.07
39954;BME280;25631;51.516;-0.470;2023-04-10T11:25:48;100544.37;;;11.18;47.00
39954;BME280;25631;51.516;-0.470;2023-04-10T11:28:37;100535.33;;;11.19;46.85
39954;BME280;25631;51.516;-0.470;2023-04-10T11:31:16;100533.05;;;11.12;46.70
39954;BME280;25631;51.516;-0.470;2023-04-10T11:34:01;100507.86;;;11.15;46.78
39954;BME280;25631;51.516;-0.470;2023-04-10T11:36:38;100511.83;;;11.10;46.61
39954;BME280;25631;51.516;-0.470;2023-04-10T11:39:16;100505.58;;;10.67;46.49
39954;BME280;25631;51.516;-0.470;2023-04-10T11:41:53;100491.77;;;11.48;46.69
39954;BME280;25631;51.516;-0.470;2023-04-10T11:44:32;100500.24;;;11.29;46.05
39954;BME280;25631;51.516;-0.470;2023-04-10T11:47:11;100494.45;;;11.27;45.73
39954;BME280;25631;51.516;-0.470;2023-04-10T11:49:52;100487.98;;;11.65;45.64
39954;BME280;25631;51.516;-0.470;2023-04-10T11:52:29;100490.31;;;11.58;45.64
39954;BME280;25631;51.516;-0.470;2023-04-10T11:55:07;100476.92;;;11.57;45.32
39954;BME280;25631;51.516;-0.470;2023-04-10T11:57:44;100472.03;;;12.17;44.79
39954;BME280;25631;51.516;-0.470;2023-04-10T12:00:22;100471.39;;;11.89;44.39
39954;BME280;25631;51.516;-0.470;2023-04-10T12:02:58;100469.94;;;12.15;44.43
39954;BME280;25631;51.516;-0.470;2023-04-10T12:05:45;100477.24;;;11.44;43.92
39954;BME280;25631;51.516;-0.470;2023-04-10T12:08:29;100456.21;;;11.65;43.77
39954;BME280;25631;51.516;-0.470;2023-04-10T12:11:08;100480.84;;;12.24;44.02
39954;BME280;25631;51.516;-0.470;2023-04-10T12:13:45;100477.29;;;11.21;43.17
39954;BME280;25631;51.516;-0.470;2023-04-10T12:16:23;100484.59;;;10.90;41.04
39954;BME280;25631;51.516;-0.470;2023-04-10T12:19:01;100469.30;;;10.53;39.67
39954;BME280;25631;51.516;-0.470;2023-04-10T12:21:38;100473.85;;;10.10;40.33
39954;BME280;25631;51.516;-0.470;2023-04-10T12:24:40;100477.05;;;9.79;40.53
39954;BME280;25631;51.516;-0.470;2023-04-10T12:27:17;100489.26;;;9.52;41.76
39954;BME280;25631;51.516;-0.470;2023-04-10T12:29:56;100488.64;;;10.31;41.92
39954;BME280;25631;51.516;-0.470;2023-04-10T12:32:33;100490.08;;;10.08;42.82
39954;BME280;25631;51.516;-0.470;2023-04-10T12:35:10;100482.68;;;10.22;42.83
39954;BME280;25631;51.516;-0.470;2023-04-10T12:37:47;100472.27;;;10.02;43.36
39954;BME280;25631;51.516;-0.470;2023-04-10T12:40:24;100478.00;;;10.23;43.45
39954;BME280;25631;51.516;-0.470;2023-04-10T12:43:00;100479.24;;;10.35;43.41
39954;BME280;25631;51.516;-0.470;2023-04-10T12:45:44;100480.04;;;10.34;43.59
39954;BME280;25631;51.516;-0.470;2023-04-10T12:48:22;100478.41;;;10.42;43.76
39954;BME280;25631;51.516;-0.470;2023-04-10T12:50:59;100476.88;;;11.07;44.02
39954;BME280;25631;51.516;-0.470;2023-04-10T12:53:42;100482.68;;;11.25;44.77
39954;BME280;25631;51.516;-0.470;2023-04-10T12:56:19;100478.66;;;11.30;45.14
39954;BME280;25631;51.516;-0.470;2023-04-10T12:59:06;100476.58;;;11.52;44.45
39954;BME280;25631;51.516;-0.470;2023-04-10T13:01:42;100488.64;;;11.64;44.19
39954;BME280;25631;51.516;-0.470;2023-04-10T13:04:19;100486.69;;;11.98;44.43
39954;BME280;25631;51.516;-0.470;2023-04-10T13:06:55;100487.82;;;12.08;43.76
39954;BME280;25631;51.516;-0.470;2023-04-10T13:09:32;100484.80;;;12.35;43.04
39954;BME280;25631;51.516;-0.470;2023-04-10T13:12:08;100477.80;;;11.77;42.64
39954;BME280;25631;51.516;-0.470;2023-04-10T13:14:45;100476.76;;;12.20;42.15
39954;BME280;25631;51.516;-0.470;2023-04-10T13:17:22;100474.13;;;12.35;41.99
39954;BME280;25631;51.516;-0.470;2023-04-10T13:19:59;100476.58;;;12.43;41.87
39954;BME280;25631;51.516;-0.470;2023-04-10T13:22:36;100485.75;;;12.90;41.52
39954;BME280;25631;51.516;-0.470;2023-04-10T13:25:12;100485.59;;;12.77;40.29
39954;BME280;25631;51.516;-0.470;2023-04-10T13:27:48;100471.67;;;12.67;39.49
39954;BME280;25631;51.516;-0.470;2023-04-10T13:30:25;100469.56;;;12.93;39.55
39954;BME280;25631;51.516;-0.470;2023-04-10T13:33:03;100485.62;;;12.85;39.75
39954;BME280;25631;51.516;-0.470;2023-04-10T13:35:40;100487.81;;;12.01;40.30
39954;BME280;25631;51.516;-0.470;2023-04-10T13:38:16;100489.13;;;12.15;40.26
39954;BME280;25631;51.516;-0.470;2023-04-10T13:40:52;100491.44;;;12.42;40.31
39954;BME280;25631;51.516;-0.470;2023-04-10T13:43:29;100495.72;;;11.82;40.54